sensor_id;sensor_type;location;lat;lon;timestamp;P1;durP1;ratioP1;P2;durP2;ratioP2
64667;SDS011;51077;42.716;23.344;2022-12-20T00:01:15;17.15;;;8.50;;
64667;SDS011;51077;42.716;23.344;2022-12-20T00:03:43;16.40;;;8.65;;
64667;SDS011;51077;42.716;23.344;2022-12-20T00:06:09;16.75;;;8.25;;
64667;SDS011;51077;42.716;23.344;2022-12-20T00:08:36;18.98;;;8.65;;
64667;SDS011;51077;42.716;23.344;2022-12-20T00:11:02;15.05;;;7.57;;
64667;SDS011;51077;42.716;23.344;2022-12-20T00:13:30;16.60;;;7.72;;
64667;SDS011;51077;42.716;23.344;2022-12-20T00:16:09;13.50;;;7.50;;
64667;SDS011;51077;42.716;23.344;2022-12-20T00:18:37;13.77;;;7.00;;
64667;SDS011;51077;42.716;23.344;2022-12-20T00:21:04;14.25;;;7.60;;
64667;SDS011;51077;42.716;23.344;2022-12-20T00:23:31;14.90;;;7.05;;
64667;SDS011;51077;42.716;23.344;2022-12-20T00:26:04;15.40;;;7.80;;
64667;SDS011;51077;42.716;23.344;2022-12-20T00:28:32;17.08;;;7.30;;
64667;SDS011;51077;42.716;23.344;2022-12-20T00:30:59;15.70;;;7.85;;
64667;SDS011;51077;42.716;23.344;2022-12-20T00:33:25;16.42;;;7.35;;
64667;SDS011;51077;42.716;23.344;2022-12-20T00:35:51;14.13;;;8.18;;
64667;SDS011;51077;42.716;23.344;2022-12-20T00:38:19;14.80;;;7.50;;
64667;SDS011;51077;42.716;23.344;2022-12-20T00:40:44;16.43;;;7.87;;
64667;SDS011;51077;42.716;23.344;2022-12-20T00:43:09;16.27;;;7.87;;
64667;SDS011;51077;42.716;23.344;2022-12-20T00:45:35;16.03;;;7.17;;
64667;SDS011;51077;42.716;23.344;2022-12-20T00:48:00;14.67;;;7.80;;
64667;SDS011;51077;42.716;23.344;2022-12-20T00:50:26;15.13;;;7.47;;
64667;SDS011;51077;42.716;23.344;2022-12-20T00:52:51;14.50;;;7.00;;
64667;SDS011;51077;42.716;23.344;2022-12-20T00:55:17;14.20;;;6.83;;
64667;SDS011;51077;42.716;23.344;2022-12-20T00:57:42;13.67;;;7.10;;
64667;SDS011;51077;42.716;23.344;2022-12-20T01:00:08;13.73;;;6.93;;
64667;SDS011;51077;42.716;23.344;2022-12-20T01:02:33;12.38;;;5.95;;
64667;SDS011;51077;42.716;23.344;2022-12-20T01:04:59;14.47;;;6.30;;
64667;SDS011;51077;42.716;23.344;2022-12-20T01:07:24;12.23;;;6.27;;
64667;SDS011;51077;42.716;23.344;2022-12-20T01:09:50;10.70;;;5.83;;
64667;SDS011;51077;42.716;23.344;2022-12-20T01:12:16;10.73;;;5.50;;
64667;SDS011;51077;42.716;23.344;2022-12-20T01:14:42;16.10;;;7.57;;
64667;SDS011;51077;42.716;23.344;2022-12-20T01:17:07;11.93;;;6.37;;
64667;SDS011;51077;42.716;23.344;2022-12-20T01:19:33;12.77;;;6.63;;
64667;SDS011;51077;42.716;23.344;2022-12-20T01:21:58;15.50;;;7.83;;
64667;SDS011;51077;42.716;23.344;2022-12-20T01:24:23;13.73;;;6.40;;
64667;SDS011;51077;42.716;23.344;2022-12-20T01:26:49;15.17;;;5.87;;
64667;SDS011;51077;42.716;23.344;2022-12-20T01:29:14;13.63;;;6.70;;
64667;SDS011;51077;42.716;23.344;2022-12-20T01:31:41;13.50;;;5.95;;
64667;SDS011;51077;42.716;23.344;2022-12-20T01:34:06;9.80;;;5.55;;
64667;SDS011;51077;42.716;23.344;2022-12-20T01:36:33;14.27;;;6.40;;
64667;SDS011;51077;42.716;23.344;2022-12-20T01:39:00;14.43;;;7.13;;
64667;SDS011;51077;42.716;23.344;2022-12-20T01:41:31;10.98;;;5.72;;
64667;SDS011;51077;42.716;23.344;2022-12-20T01:44:02;9.75;;;5.50;;
64667;SDS011;51077;42.716;23.344;2022-12-20T01:46:33;11.82;;;6.80;;
64667;SDS011;51077;42.716;23.344;2022-12-20T01:51:40;13.70;;;6.43;;
64667;SDS011;51077;42.716;23.344;2022-12-20T01:57:00;13.20;;;5.68;;
64667;SDS011;51077;42.716;23.344;2022-12-20T01:59:34;15.82;;;6.85;;
64667;SDS011;51077;42.716;23.344;2022-12-20T02:02:04;12.25;;;6.10;;
64667;SDS011;51077;42.716;23.344;2022-12-20T02:04:32;10.93;;;6.18;;
64667;SDS011;51077;42.716;23.344;2022-12-20T02:06:58;15.53;;;6.97;;
64667;SDS011;51077;42.716;23.344;2022-12-20T02:09:24;11.88;;;5.70;;
64667;SDS011;51077;42.716;23.344;2022-12-20T02:14:35;13.07;;;6.45;;
64667;SDS011;51077;42.716;23.344;2022-12-20T02:17:20;10.40;;;5.82;;
64667;SDS011;51077;42.716;23.344;2022-12-20T02:20:20;12.52;;;6.63;;
64667;SDS011;51077;42.716;23.344;2022-12-20T02:31:26;14.05;;;6.85;;
64667;SDS011;51077;42.716;23.344;2022-12-20T02:33:58;12.90;;;7.07;;
64667;SDS011;51077;42.716;23.344;2022-12-20T02:36:26;13.68;;;6.82;;
64667;SDS011;51077;42.716;23.344;2022-12-20T02:38:52;13.93;;;6.73;;
64667;SDS011;51077;42.716;23.344;2022-12-20T02:43:52;10.52;;;6.05;;
64667;SDS011;51077;42.716;23.344;2022-12-20T02:46:41;12.68;;;5.97;;
64667;SDS011;51077;42.716;23.344;2022-12-20T02:49:12;13.10;;;6.18;;
64667;SDS011;51077;42.716;23.344;2022-12-20T02:51:42;12.63;;;5.97;;
64667;SDS011;51077;42.716;23.344;2022-12-20T02:54:11;10.40;;;5.75;;
64667;SDS011;51077;42.716;23.344;2022-12-20T02:56:48;14.20;;;6.25;;
64667;SDS011;51077;42.716;23.344;2022-12-20T02:59:20;12.50;;;5.57;;
64667;SDS011;51077;42.716;23.344;2022-12-20T03:01:53;10.77;;;6.05;;
64667;SDS011;51077;42.716;23.344;2022-12-20T03:04:23;13.98;;;6.00;;
64667;SDS011;51077;42.716;23.344;2022-12-20T03:06:59;13.57;;;6.35;;
64667;SDS011;51077;42.716;23.344;2022-12-20T03:09:26;11.00;;;5.45;;
64667;SDS011;51077;42.716;23.344;2022-12-20T03:11:54;12.27;;;5.75;;
64667;SDS011;51077;42.716;23.344;2022-12-20T03:14:20;10.70;;;5.37;;
64667;SDS011;51077;42.716;23.344;2022-12-20T03:16:46;10.70;;;5.60;;
64667;SDS011;51077;42.716;23.344;2022-12-20T03:19:11;12.30;;;5.93;;
64667;SDS011;51077;42.716;23.344;2022-12-20T03:21:36;9.77;;;5.20;;
64667;SDS011;51077;42.716;23.344;2022-12-20T03:24:02;11.40;;;6.10;;
64667;SDS011;51077;42.716;23.344;2022-12-20T03:26:28;11.10;;;5.67;;
64667;SDS011;51077;42.716;23.344;2022-12-20T03:28:53;11.45;;;5.43;;
64667;SDS011;51077;42.716;23.344;2022-12-20T03:31:19;11.43;;;5.87;;
64667;SDS011;51077;42.716;23.344;2022-12-20T03:33:44;11.37;;;6.27;;
64667;SDS011;51077;42.716;23.344;2022-12-20T03:36:10;13.03;;;6.13;;
64667;SDS011;51077;42.716;23.344;2022-12-20T03:38:35;9.17;;;5.17;;
64667;SDS011;51077;42.716;23.344;2022-12-20T03:41:01;11.60;;;5.63;;
64667;SDS011;51077;42.716;23.344;2022-12-20T03:43:26;11.20;;;5.17;;
64667;SDS011;51077;42.716;23.344;2022-12-20T03:45:52;9.93;;;6.07;;
64667;SDS011;51077;42.716;23.344;2022-12-20T03:48:17;10.67;;;5.47;;
64667;SDS011;51077;42.716;23.344;2022-12-20T03:50:43;10.13;;;5.57;;
64667;SDS011;51077;42.716;23.344;2022-12-20T03:53:08;11.93;;;6.77;;
64667;SDS011;51077;42.716;23.344;2022-12-20T03:55:33;11.53;;;5.70;;
64667;SDS011;51077;42.716;23.344;2022-12-20T03:57:59;11.57;;;6.03;;
64667;SDS011;51077;42.716;23.344;2022-12-20T04:00:24;13.00;;;6.63;;
64667;SDS011;51077;42.716;23.344;2022-12-20T04:02:50;10.40;;;5.90;;
64667;SDS011;51077;42.716;23.344;2022-12-20T04:05:16;14.27;;;7.20;;
64667;SDS011;51077;42.716;23.344;2022-12-20T04:07:41;13.00;;;6.47;;
64667;SDS011;51077;42.716;23.344;2022-12-20T04:10:07;11.23;;;6.33;;
64667;SDS011;51077;42.716;23.344;2022-12-20T04:12:33;15.80;;;8.20;;
64667;SDS011;51077;42.716;23.344;2022-12-20T04:14:58;16.27;;;8.13;;
64667;SDS011;51077;42.716;23.344;2022-12-20T04:17:24;15.90;;;7.43;;
64667;SDS011;51077;42.716;23.344;2022-12-20T04:19:49;16.70;;;8.23;;
64667;SDS011;51077;42.716;23.344;2022-12-20T04:22:15;14.87;;;7.20;;
64667;SDS011;51077;42.716;23.344;2022-12-20T04:24:40;15.20;;;7.37;;
64667;SDS011;51077;42.716;23.344;2022-12-20T04:27:06;15.80;;;7.40;;
64667;SDS011;51077;42.716;23.344;2022-12-20T04:29:31;16.40;;;8.10;;
64667;SDS011;51077;42.716;23.344;2022-12-20T04:31:57;15.07;;;8.23;;
64667;SDS011;51077;42.716;23.344;2022-12-20T04:34:22;16.30;;;7.70;;
64667;SDS011;51077;42.716;23.344;2022-12-20T04:36:48;16.37;;;7.87;;
64667;SDS011;51077;42.716;23.344;2022-12-20T04:39:13;14.93;;;8.13;;
64667;SDS011;51077;42.716;23.344;2022-12-20T04:41:38;17.63;;;8.30;;
64667;SDS011;51077;42.716;23.344;2022-12-20T04:44:04;18.33;;;8.53;;
64667;SDS011;51077;42.716;23.344;2022-12-20T04:46:29;15.43;;;8.20;;
64667;SDS011;51077;42.716;23.344;2022-12-20T04:48:55;16.13;;;8.83;;
64667;SDS011;51077;42.716;23.344;2022-12-20T04:51:20;16.50;;;8.10;;
64667;SDS011;51077;42.716;23.344;2022-12-20T04:53:46;17.33;;;8.37;;
64667;SDS011;51077;42.716;23.344;2022-12-20T04:56:12;14.63;;;7.67;;
64667;SDS011;51077;42.716;23.344;2022-12-20T04:58:38;15.55;;;8.02;;
64667;SDS011;51077;42.716;23.344;2022-12-20T05:01:04;15.37;;;7.47;;
64667;SDS011;51077;42.716;23.344;2022-12-20T05:03:29;14.73;;;7.40;;
64667;SDS011;51077;42.716;23.344;2022-12-20T05:05:55;15.87;;;7.73;;
64667;SDS011;51077;42.716;23.344;2022-12-20T05:08:20;15.83;;;7.67;;
64667;SDS011;51077;42.716;23.344;2022-12-20T05:10:46;18.13;;;7.97;;
64667;SDS011;51077;42.716;23.344;2022-12-20T05:13:12;16.27;;;8.43;;
64667;SDS011;51077;42.716;23.344;2022-12-20T05:15:38;16.43;;;8.27;;
64667;SDS011;51077;42.716;23.344;2022-12-20T05:18:03;14.97;;;7.50;;
64667;SDS011;51077;42.716;23.344;2022-12-20T05:20:29;14.97;;;8.20;;
64667;SDS011;51077;42.716;23.344;2022-12-20T05:22:56;13.90;;;8.00;;
64667;SDS011;51077;42.716;23.344;2022-12-20T05:25:48;15.90;;;7.90;;
64667;SDS011;51077;42.716;23.344;2022-12-20T05:28:33;16.92;;;7.80;;
64667;SDS011;51077;42.716;23.344;2022-12-20T05:30:59;13.75;;;7.72;;
64667;SDS011;51077;42.716;23.344;2022-12-20T05:33:25;14.40;;;7.80;;
64667;SDS011;51077;42.716;23.344;2022-12-20T05:35:51;15.82;;;8.65;;
64667;SDS011;51077;42.716;23.344;2022-12-20T05:38:17;18.47;;;8.43;;
64667;SDS011;51077;42.716;23.344;2022-12-20T05:40:42;13.90;;;7.73;;
64667;SDS011;51077;42.716;23.344;2022-12-20T05:43:08;14.07;;;7.93;;
64667;SDS011;51077;42.716;23.344;2022-12-20T05:45:34;14.93;;;7.95;;
64667;SDS011;51077;42.716;23.344;2022-12-20T05:48:00;15.70;;;7.77;;
64667;SDS011;51077;42.716;23.344;2022-12-20T05:50:25;14.97;;;8.80;;
64667;SDS011;51077;42.716;23.344;2022-12-20T05:52:51;19.13;;;8.27;;
64667;SDS011;51077;42.716;23.344;2022-12-20T05:55:16;16.53;;;7.27;;
64667;SDS011;51077;42.716;23.344;2022-12-20T05:57:42;13.60;;;7.70;;
64667;SDS011;51077;42.716;23.344;2022-12-20T06:00:07;16.57;;;8.93;;
64667;SDS011;51077;42.716;23.344;2022-12-20T06:02:35;15.02;;;8.52;;
64667;SDS011;51077;42.716;23.344;2022-12-20T06:05:00;15.13;;;8.07;;
64667;SDS011;51077;42.716;23.344;2022-12-20T06:07:27;16.50;;;8.25;;
64667;SDS011;51077;42.716;23.344;2022-12-20T06:09:55;18.05;;;8.13;;
64667;SDS011;51077;42.716;23.344;2022-12-20T06:12:22;16.27;;;8.30;;
64667;SDS011;51077;42.716;23.344;2022-12-20T06:14:47;16.93;;;8.23;;
64667;SDS011;51077;42.716;23.344;2022-12-20T06:17:13;14.60;;;7.57;;
64667;SDS011;51077;42.716;23.344;2022-12-20T06:19:38;17.10;;;8.23;;
64667;SDS011;51077;42.716;23.344;2022-12-20T06:22:05;14.95;;;7.75;;
64667;SDS011;51077;42.716;23.344;2022-12-20T06:24:32;14.48;;;8.30;;
64667;SDS011;51077;42.716;23.344;2022-12-20T06:26:59;15.13;;;8.13;;
64667;SDS011;51077;42.716;23.344;2022-12-20T06:29:24;18.23;;;8.43;;
64667;SDS011;51077;42.716;23.344;2022-12-20T06:31:50;13.50;;;7.80;;
64667;SDS011;51077;42.716;23.344;2022-12-20T06:34:16;14.80;;;7.97;;
64667;SDS011;51077;42.716;23.344;2022-12-20T06:36:42;13.45;;;7.75;;
64667;SDS011;51077;42.716;23.344;2022-12-20T06:39:07;14.67;;;7.63;;
64667;SDS011;51077;42.716;23.344;2022-12-20T06:41:33;16.42;;;7.80;;
64667;SDS011;51077;42.716;23.344;2022-12-20T06:43:59;16.90;;;8.48;;
64667;SDS011;51077;42.716;23.344;2022-12-20T06:46:25;13.47;;;7.60;;
64667;SDS011;51077;42.716;23.344;2022-12-20T06:48:51;13.15;;;7.93;;
64667;SDS011;51077;42.716;23.344;2022-12-20T06:51:17;14.25;;;8.48;;
64667;SDS011;51077;42.716;23.344;2022-12-20T06:53:42;14.33;;;7.80;;
64667;SDS011;51077;42.716;23.344;2022-12-20T06:56:08;14.00;;;8.23;;
64667;SDS011;51077;42.716;23.344;2022-12-20T06:58:33;13.03;;;7.67;;
64667;SDS011;51077;42.716;23.344;2022-12-20T07:00:59;15.13;;;7.10;;
64667;SDS011;51077;42.716;23.344;2022-12-20T07:03:24;15.40;;;8.67;;
64667;SDS011;51077;42.716;23.344;2022-12-20T07:05:51;13.50;;;7.30;;
64667;SDS011;51077;42.716;23.344;2022-12-20T07:08:20;14.35;;;7.47;;
64667;SDS011;51077;42.716;23.344;2022-12-20T07:10:46;15.77;;;7.30;;
64667;SDS011;51077;42.716;23.344;2022-12-20T07:13:12;14.98;;;7.90;;
64667;SDS011;51077;42.716;23.344;2022-12-20T07:15:38;14.60;;;6.90;;
64667;SDS011;51077;42.716;23.344;2022-12-20T07:18:03;17.13;;;8.03;;
64667;SDS011;51077;42.716;23.344;2022-12-20T07:20:29;13.60;;;7.67;;
64667;SDS011;51077;42.716;23.344;2022-12-20T07:22:55;12.70;;;6.78;;
64667;SDS011;51077;42.716;23.344;2022-12-20T07:25:20;17.93;;;7.07;;
64667;SDS011;51077;42.716;23.344;2022-12-20T07:27:46;14.17;;;7.30;;
64667;SDS011;51077;42.716;23.344;2022-12-20T07:30:14;14.68;;;7.43;;
64667;SDS011;51077;42.716;23.344;2022-12-20T07:32:40;14.32;;;7.32;;
64667;SDS011;51077;42.716;23.344;2022-12-20T07:35:06;14.43;;;6.43;;
64667;SDS011;51077;42.716;23.344;2022-12-20T07:37:31;12.20;;;6.90;;
64667;SDS011;51077;42.716;23.344;2022-12-20T07:39:57;17.50;;;6.30;;
64667;SDS011;51077;42.716;23.344;2022-12-20T07:42:22;12.17;;;7.53;;
64667;SDS011;51077;42.716;23.344;2022-12-20T07:44:48;11.67;;;7.10;;
64667;SDS011;51077;42.716;23.344;2022-12-20T07:47:13;12.43;;;6.80;;
64667;SDS011;51077;42.716;23.344;2022-12-20T07:49:38;13.07;;;7.23;;
64667;SDS011;51077;42.716;23.344;2022-12-20T07:52:04;11.20;;;6.37;;
64667;SDS011;51077;42.716;23.344;2022-12-20T07:54:34;9.82;;;6.43;;
64667;SDS011;51077;42.716;23.344;2022-12-20T07:57:04;13.57;;;6.70;;
64667;SDS011;51077;42.716;23.344;2022-12-20T07:59:35;11.48;;;6.45;;
64667;SDS011;51077;42.716;23.344;2022-12-20T08:02:07;11.82;;;6.53;;
64667;SDS011;51077;42.716;23.344;2022-12-20T08:04:36;11.65;;;6.40;;
64667;SDS011;51077;42.716;23.344;2022-12-20T08:07:02;9.60;;;6.22;;
64667;SDS011;51077;42.716;23.344;2022-12-20T08:09:28;12.60;;;5.90;;
64667;SDS011;51077;42.716;23.344;2022-12-20T08:11:59;10.52;;;6.13;;
64667;SDS011;51077;42.716;23.344;2022-12-20T08:14:24;11.90;;;6.30;;
64667;SDS011;51077;42.716;23.344;2022-12-20T08:16:50;13.50;;;7.10;;
64667;SDS011;51077;42.716;23.344;2022-12-20T08:19:16;12.20;;;6.87;;
64667;SDS011;51077;42.716;23.344;2022-12-20T08:21:42;12.10;;;6.83;;
64667;SDS011;51077;42.716;23.344;2022-12-20T08:24:07;14.63;;;7.20;;
64667;SDS011;51077;42.716;23.344;2022-12-20T08:26:39;14.60;;;7.57;;
64667;SDS011;51077;42.716;23.344;2022-12-20T08:29:06;13.35;;;8.35;;
64667;SDS011;51077;42.716;23.344;2022-12-20T08:31:35;12.90;;;7.03;;
64667;SDS011;51077;42.716;23.344;2022-12-20T08:34:02;10.75;;;7.00;;
64667;SDS011;51077;42.716;23.344;2022-12-20T08:36:28;10.30;;;6.70;;
64667;SDS011;51077;42.716;23.344;2022-12-20T08:38:53;11.20;;;6.83;;
64667;SDS011;51077;42.716;23.344;2022-12-20T08:41:18;10.33;;;6.57;;
64667;SDS011;51077;42.716;23.344;2022-12-20T08:43:44;11.17;;;6.60;;
64667;SDS011;51077;42.716;23.344;2022-12-20T08:46:10;12.20;;;6.43;;
64667;SDS011;51077;42.716;23.344;2022-12-20T08:48:36;8.82;;;5.80;;
64667;SDS011;51077;42.716;23.344;2022-12-20T08:51:03;11.13;;;6.47;;
64667;SDS011;51077;42.716;23.344;2022-12-20T08:53:31;10.88;;;6.38;;
64667;SDS011;51077;42.716;23.344;2022-12-20T08:58:34;10.35;;;6.50;;
64667;SDS011;51077;42.716;23.344;2022-12-20T09:01:00;10.70;;;6.63;;
64667;SDS011;51077;42.716;23.344;2022-12-20T09:03:28;11.05;;;6.60;;
64667;SDS011;51077;42.716;23.344;2022-12-20T09:05:55;10.98;;;7.25;;
64667;SDS011;51077;42.716;23.344;2022-12-20T09:08:20;15.20;;;7.40;;
64667;SDS011;51077;42.716;23.344;2022-12-20T09:10:46;13.33;;;7.27;;
64667;SDS011;51077;42.716;23.344;2022-12-20T09:13:11;10.23;;;6.60;;
64667;SDS011;51077;42.716;23.344;2022-12-20T09:15:37;10.07;;;6.33;;
64667;SDS011;51077;42.716;23.344;2022-12-20T09:18:02;8.53;;;5.77;;
64667;SDS011;51077;42.716;23.344;2022-12-20T09:20:29;11.25;;;6.70;;
64667;SDS011;51077;42.716;23.344;2022-12-20T09:22:57;12.07;;;6.82;;
64667;SDS011;51077;42.716;23.344;2022-12-20T09:25:23;12.23;;;7.47;;
64667;SDS011;51077;42.716;23.344;2022-12-20T09:27:49;9.57;;;6.60;;
64667;SDS011;51077;42.716;23.344;2022-12-20T09:30:14;11.80;;;6.50;;
64667;SDS011;51077;42.716;23.344;2022-12-20T09:32:40;11.10;;;7.20;;
64667;SDS011;51077;42.716;23.344;2022-12-20T09:35:05;10.07;;;6.50;;
64667;SDS011;51077;42.716;23.344;2022-12-20T09:37:31;10.30;;;6.80;;
64667;SDS011;51077;42.716;23.344;2022-12-20T09:39:57;9.83;;;6.50;;
64667;SDS011;51077;42.716;23.344;2022-12-20T09:42:26;9.30;;;6.60;;
64667;SDS011;51077;42.716;23.344;2022-12-20T09:44:55;10.27;;;6.68;;
64667;SDS011;51077;42.716;23.344;2022-12-20T09:47:33;9.77;;;6.35;;
64667;SDS011;51077;42.716;23.344;2022-12-20T09:50:00;12.43;;;6.30;;
64667;SDS011;51077;42.716;23.344;2022-12-20T10:00:46;10.05;;;6.38;;
64667;SDS011;51077;42.716;23.344;2022-12-20T10:03:17;8.85;;;5.82;;
64667;SDS011;51077;42.716;23.344;2022-12-20T10:05:53;11.05;;;6.22;;
64667;SDS011;51077;42.716;23.344;2022-12-20T10:14:05;8.77;;;5.97;;
64667;SDS011;51077;42.716;23.344;2022-12-20T10:16:45;7.30;;;5.28;;
64667;SDS011;51077;42.716;23.344;2022-12-20T10:22:13;9.18;;;6.18;;
64667;SDS011;51077;42.716;23.344;2022-12-20T10:24:44;8.57;;;5.18;;
64667;SDS011;51077;42.716;23.344;2022-12-20T10:27:18;11.60;;;5.70;;
64667;SDS011;51077;42.716;23.344;2022-12-20T10:29:46;7.28;;;5.18;;
64667;SDS011;51077;42.716;23.344;2022-12-20T10:32:14;7.78;;;5.72;;
64667;SDS011;51077;42.716;23.344;2022-12-20T10:35:25;7.97;;;5.32;;
64667;SDS011;51077;42.716;23.344;2022-12-20T10:37:33;8.05;;;5.22;;
64667;SDS011;51077;42.716;23.344;2022-12-20T10:39:59;8.27;;;5.57;;
64667;SDS011;51077;42.716;23.344;2022-12-20T10:42:35;10.43;;;5.43;;
64667;SDS011;51077;42.716;23.344;2022-12-20T10:45:26;10.00;;;5.70;;
64667;SDS011;51077;42.716;23.344;2022-12-20T10:47:58;9.82;;;5.45;;
64667;SDS011;51077;42.716;23.344;2022-12-20T10:50:25;8.00;;;5.38;;
64667;SDS011;51077;42.716;23.344;2022-12-20T10:55:38;8.73;;;5.78;;
64667;SDS011;51077;42.716;23.344;2022-12-20T10:58:12;8.88;;;5.55;;
64667;SDS011;51077;42.716;23.344;2022-12-20T11:00:40;10.05;;;5.90;;
64667;SDS011;51077;42.716;23.344;2022-12-20T11:03:11;8.55;;;5.93;;
64667;SDS011;51077;42.716;23.344;2022-12-20T11:05:56;8.43;;;5.47;;
64667;SDS011;51077;42.716;23.344;2022-12-20T11:08:23;8.00;;;5.03;;
64667;SDS011;51077;42.716;23.344;2022-12-20T11:10:50;8.25;;;5.22;;
64667;SDS011;51077;42.716;23.344;2022-12-20T11:13:34;9.10;;;6.07;;
64667;SDS011;51077;42.716;23.344;2022-12-20T11:16:00;7.23;;;4.90;;
64667;SDS011;51077;42.716;23.344;2022-12-20T11:23:39;7.57;;;4.80;;
64667;SDS011;51077;42.716;23.344;2022-12-20T11:29:09;7.82;;;4.93;;
64667;SDS011;51077;42.716;23.344;2022-12-20T11:37:24;7.45;;;4.78;;
64667;SDS011;51077;42.716;23.344;2022-12-20T11:45:40;7.97;;;4.90;;
64667;SDS011;51077;42.716;23.344;2022-12-20T12:01:28;6.82;;;4.32;;
64667;SDS011;51077;42.716;23.344;2022-12-20T12:12:21;8.00;;;5.22;;
64667;SDS011;51077;42.716;23.344;2022-12-20T12:23:05;7.97;;;4.72;;
64667;SDS011;51077;42.716;23.344;2022-12-20T12:25:39;8.38;;;5.00;;
64667;SDS011;51077;42.716;23.344;2022-12-20T12:28:04;11.47;;;6.83;;
64667;SDS011;51077;42.716;23.344;2022-12-20T12:30:35;8.50;;;5.17;;
64667;SDS011;51077;42.716;23.344;2022-12-20T12:33:05;13.68;;;7.47;;
64667;SDS011;51077;42.716;23.344;2022-12-20T12:35:46;12.65;;;9.20;;
64667;SDS011;51077;42.716;23.344;2022-12-20T12:43:44;33.63;;;23.17;;
64667;SDS011;51077;42.716;23.344;2022-12-20T12:46:27;28.38;;;20.40;;
64667;SDS011;51077;42.716;23.344;2022-12-20T12:51:35;25.50;;;19.35;;
64667;SDS011;51077;42.716;23.344;2022-12-20T13:07:40;20.27;;;15.70;;
64667;SDS011;51077;42.716;23.344;2022-12-20T13:15:01;16.88;;;12.60;;
64667;SDS011;51077;42.716;23.344;2022-12-20T13:17:54;16.02;;;11.88;;
64667;SDS011;51077;42.716;23.344;2022-12-20T13:20:34;15.05;;;11.52;;
64667;SDS011;51077;42.716;23.344;2022-12-20T13:25:32;14.93;;;10.20;;
64667;SDS011;51077;42.716;23.344;2022-12-20T13:30:43;12.57;;;9.18;;
64667;SDS011;51077;42.716;23.344;2022-12-20T13:33:22;13.32;;;9.38;;
64667;SDS011;51077;42.716;23.344;2022-12-20T13:35:59;14.02;;;10.45;;
64667;SDS011;51077;42.716;23.344;2022-12-20T13:40:58;17.90;;;12.50;;
64667;SDS011;51077;42.716;23.344;2022-12-20T13:43:25;17.52;;;12.98;;
64667;SDS011;51077;42.716;23.344;2022-12-20T13:51:01;15.45;;;13.15;;
64667;SDS011;51077;42.716;23.344;2022-12-20T13:53:27;15.57;;;11.93;;
64667;SDS011;51077;42.716;23.344;2022-12-20T13:55:53;14.63;;;11.33;;
64667;SDS011;51077;42.716;23.344;2022-12-20T14:00:49;13.93;;;10.45;;
64667;SDS011;51077;42.716;23.344;2022-12-20T14:05:52;15.35;;;10.07;;
64667;SDS011;51077;42.716;23.344;2022-12-20T14:08:33;13.25;;;9.73;;
64667;SDS011;51077;42.716;23.344;2022-12-20T14:11:12;12.15;;;8.77;;
64667;SDS011;51077;42.716;23.344;2022-12-20T14:13:39;11.13;;;8.02;;
64667;SDS011;51077;42.716;23.344;2022-12-20T14:16:08;12.85;;;7.88;;
64667;SDS011;51077;42.716;23.344;2022-12-20T14:18:41;11.23;;;7.03;;
64667;SDS011;51077;42.716;23.344;2022-12-20T14:21:08;11.00;;;7.65;;
64667;SDS011;51077;42.716;23.344;2022-12-20T14:23:39;10.60;;;7.20;;
64667;SDS011;51077;42.716;23.344;2022-12-20T14:26:09;9.48;;;6.57;;
64667;SDS011;51077;42.716;23.344;2022-12-20T14:28:50;10.88;;;6.40;;
64667;SDS011;51077;42.716;23.344;2022-12-20T14:31:27;12.98;;;6.90;;
64667;SDS011;51077;42.716;23.344;2022-12-20T14:34:11;11.57;;;7.30;;
64667;SDS011;51077;42.716;23.344;2022-12-20T14:36:40;13.40;;;8.20;;
64667;SDS011;51077;42.716;23.344;2022-12-20T14:41:57;17.45;;;8.18;;
64667;SDS011;51077;42.716;23.344;2022-12-20T14:44:32;16.75;;;9.05;;
64667;SDS011;51077;42.716;23.344;2022-12-20T14:47:21;18.02;;;9.77;;
64667;SDS011;51077;42.716;23.344;2022-12-20T14:49:50;19.80;;;10.45;;
64667;SDS011;51077;42.716;23.344;2022-12-20T14:52:20;18.88;;;11.75;;
64667;SDS011;51077;42.716;23.344;2022-12-20T14:54:55;21.67;;;12.95;;
64667;SDS011;51077;42.716;23.344;2022-12-20T15:08:09;29.67;;;15.93;;
64667;SDS011;51077;42.716;23.344;2022-12-20T15:13:26;33.67;;;19.00;;
64667;SDS011;51077;42.716;23.344;2022-12-20T15:15:57;34.83;;;19.48;;
64667;SDS011;51077;42.716;23.344;2022-12-20T15:18:24;33.33;;;19.10;;
64667;SDS011;51077;42.716;23.344;2022-12-20T15:21:12;31.97;;;17.93;;
64667;SDS011;51077;42.716;23.344;2022-12-20T15:23:46;30.17;;;18.17;;
64667;SDS011;51077;42.716;23.344;2022-12-20T15:26:15;34.92;;;19.30;;
64667;SDS011;51077;42.716;23.344;2022-12-20T15:28:42;33.03;;;18.92;;
64667;SDS011;51077;42.716;23.344;2022-12-20T15:31:11;33.80;;;18.53;;
64667;SDS011;51077;42.716;23.344;2022-12-20T15:33:38;32.53;;;19.55;;
64667;SDS011;51077;42.716;23.344;2022-12-20T15:36:06;32.70;;;19.02;;
64667;SDS011;51077;42.716;23.344;2022-12-20T15:38:35;31.13;;;19.40;;
64667;SDS011;51077;42.716;23.344;2022-12-20T15:41:04;29.87;;;18.37;;
64667;SDS011;51077;42.716;23.344;2022-12-20T15:43:35;32.85;;;20.35;;
64667;SDS011;51077;42.716;23.344;2022-12-20T15:46:03;33.65;;;20.48;;
64667;SDS011;51077;42.716;23.344;2022-12-20T15:48:29;33.30;;;19.70;;
64667;SDS011;51077;42.716;23.344;2022-12-20T15:50:55;32.50;;;19.70;;
64667;SDS011;51077;42.716;23.344;2022-12-20T15:53:26;31.58;;;20.75;;
64667;SDS011;51077;42.716;23.344;2022-12-20T15:55:55;34.80;;;20.20;;
64667;SDS011;51077;42.716;23.344;2022-12-20T15:58:21;32.63;;;19.73;;
64667;SDS011;51077;42.716;23.344;2022-12-20T16:00:52;29.27;;;19.42;;
64667;SDS011;51077;42.716;23.344;2022-12-20T16:03:20;34.42;;;19.83;;
64667;SDS011;51077;42.716;23.344;2022-12-20T16:05:47;31.98;;;20.65;;
64667;SDS011;51077;42.716;23.344;2022-12-20T16:08:15;30.13;;;20.08;;
64667;SDS011;51077;42.716;23.344;2022-12-20T16:10:43;35.08;;;20.42;;
64667;SDS011;51077;42.716;23.344;2022-12-20T16:13:14;31.15;;;20.63;;
64667;SDS011;51077;42.716;23.344;2022-12-20T16:15:41;33.65;;;20.38;;
64667;SDS011;51077;42.716;23.344;2022-12-20T16:18:07;36.35;;;21.48;;
64667;SDS011;51077;42.716;23.344;2022-12-20T16:20:33;32.55;;;20.45;;
64667;SDS011;51077;42.716;23.344;2022-12-20T16:22:59;33.13;;;22.15;;
64667;SDS011;51077;42.716;23.344;2022-12-20T16:25:28;34.70;;;20.58;;
64667;SDS011;51077;42.716;23.344;2022-12-20T16:27:58;37.88;;;22.25;;
64667;SDS011;51077;42.716;23.344;2022-12-20T16:30:24;36.63;;;22.53;;
64667;SDS011;51077;42.716;23.344;2022-12-20T16:32:50;35.60;;;22.30;;
64667;SDS011;51077;42.716;23.344;2022-12-20T16:35:20;36.55;;;23.25;;
64667;SDS011;51077;42.716;23.344;2022-12-20T16:37:48;56.60;;;40.70;;
64667;SDS011;51077;42.716;23.344;2022-12-20T16:40:13;53.33;;;40.73;;
64667;SDS011;51077;42.716;23.344;2022-12-20T16:42:39;61.27;;;42.20;;
64667;SDS011;51077;42.716;23.344;2022-12-20T16:45:05;55.13;;;41.53;;
64667;SDS011;51077;42.716;23.344;2022-12-20T16:47:35;59.67;;;42.35;;
64667;SDS011;51077;42.716;23.344;2022-12-20T16:50:01;61.05;;;42.83;;
64667;SDS011;51077;42.716;23.344;2022-12-20T16:52:26;60.03;;;43.20;;
64667;SDS011;51077;42.716;23.344;2022-12-20T16:54:52;63.10;;;45.10;;
64667;SDS011;51077;42.716;23.344;2022-12-20T16:57:18;58.53;;;43.23;;
64667;SDS011;51077;42.716;23.344;2022-12-20T16:59:45;61.78;;;41.85;;